createdAt,value
2022-12-31T00:00:51.642Z,99282.22
2022-12-31T00:01:53.173Z,99270.59
2022-12-31T00:02:54.817Z,99278.75
2022-12-31T00:03:57.464Z,99286.22
2022-12-31T00:04:58.990Z,99287.50
2022-12-31T00:12:32.464Z,99267.63
2022-12-31T00:13:33.985Z,99271.53
2022-12-31T00:14:35.553Z,99266.22
2022-12-31T00:15:37.993Z,99269.25
2022-12-31T00:16:42.284Z,99270.66
2022-12-31T00:17:43.889Z,99272.03
2022-12-31T00:18:48.748Z,99274.34
2022-12-31T00:19:50.240Z,99271.75
2022-12-31T00:20:51.764Z,99271.66
2022-12-31T00:21:53.329Z,99273.13
2022-12-31T00:22:55.049Z,99270.50
2022-12-31T00:23:57.242Z,99272.63
2022-12-31T00:24:58.770Z,99271.59
2022-12-31T00:26:11.602Z,99277.75
2022-12-31T00:27:13.132Z,99284.72
2022-12-31T00:28:14.719Z,99289.66
2022-12-31T00:29:16.293Z,99295.44
2022-12-31T00:30:17.882Z,99288.03
2022-12-31T00:31:26.032Z,99288.63
2022-12-31T00:32:28.357Z,99290.22
2022-12-31T00:33:29.906Z,99294.84
2022-12-31T00:34:32.303Z,99292.88
2022-12-31T00:35:33.852Z,99287.53
2022-12-31T00:36:38.455Z,99285.78
2022-12-31T00:37:39.948Z,99291.72
2022-12-31T00:38:44.154Z,99297.97
2022-12-31T00:39:45.656Z,99295.50
2022-12-31T00:40:47.171Z,99293.69
2022-12-31T00:41:48.697Z,99298.19
2022-12-31T00:42:50.237Z,99294.94
2022-12-31T00:43:52.536Z,99299.03
2022-12-31T00:44:54.107Z,99314.72
2022-12-31T00:45:55.827Z,99320.03
2022-12-31T00:46:57.395Z,99320.75
2022-12-31T00:47:58.957Z,99321.47
2022-12-31T00:49:00.514Z,99322.25
2022-12-31T00:50:02.065Z,99318.88
2022-12-31T00:51:05.810Z,99340.81
2022-12-31T00:52:07.404Z,99353.75
2022-12-31T00:53:08.921Z,99359.53
2022-12-31T00:54:10.450Z,99357.75
2022-12-31T00:55:12.005Z,99348.97
2022-12-31T00:56:16.174Z,99345.53
2022-12-31T00:57:17.684Z,99345.53
2022-12-31T00:58:19.228Z,99341.91
2022-12-31T00:59:20.735Z,99353.00
2022-12-31T01:00:22.439Z,99346.94
2022-12-31T01:01:26.715Z,99351.09
2022-12-31T01:02:28.434Z,99351.03
2022-12-31T01:03:30.117Z,99348.19
2022-12-31T01:04:31.655Z,99356.88
2022-12-31T01:05:34.549Z,99343.81
2022-12-31T01:06:36.224Z,99347.91
2022-12-31T01:07:38.114Z,99346.22
2022-12-31T01:08:39.716Z,99345.19
2022-12-31T01:09:41.259Z,99341.63
2022-12-31T01:10:42.852Z,99348.84
2022-12-31T01:11:44.840Z,99343.41
2022-12-31T01:12:46.389Z,99340.91
2022-12-31T01:13:52.146Z,99348.53
2022-12-31T01:14:53.666Z,99344.97
2022-12-31T01:15:55.228Z,99344.97
2022-12-31T01:16:56.834Z,99344.91
2022-12-31T01:17:58.392Z,99338.09
2022-12-31T01:19:03.084Z,99326.91
2022-12-31T01:20:04.948Z,99320.97
2022-12-31T01:21:09.408Z,99334.75
2022-12-31T01:22:10.918Z,99320.09
2022-12-31T01:23:12.497Z,99322.41
2022-12-31T01:24:14.490Z,99320.75
2022-12-31T01:25:16.040Z,99317.09
2022-12-31T01:26:19.094Z,99309.03
2022-12-31T01:27:20.622Z,99317.63
2022-12-31T01:28:22.150Z,99311.75
2022-12-31T01:29:23.751Z,99314.38
2022-12-31T01:30:25.278Z,99314.56
2022-12-31T01:31:27.815Z,99317.91
2022-12-31T01:32:29.448Z,99298.81
2022-12-31T01:33:31.072Z,99285.63
2022-12-31T01:34:32.615Z,99297.75
2022-12-31T01:35:35.727Z,99284.38
2022-12-31T01:36:37.840Z,99284.50
2022-12-31T01:37:39.355Z,99282.91
2022-12-31T01:38:41.581Z,99286.47
2022-12-31T01:39:43.321Z,99281.97
2022-12-31T01:40:44.851Z,99280.81
2022-12-31T01:41:47.938Z,99272.25
2022-12-31T01:42:57.169Z,99272.56
2022-12-31T01:44:01.059Z,99283.75
2022-12-31T01:45:02.684Z,99285.22
2022-12-31T01:46:04.430Z,99289.38
2022-12-31T01:47:13.827Z,99292.94
2022-12-31T01:48:19.681Z,99296.50
2022-12-31T01:49:44.190Z,99298.28
2022-12-31T01:50:46.539Z,99304.34
2022-12-31T01:51:57.745Z,99324.28
2022-12-31T01:53:03.485Z,99330.38
2022-12-31T01:54:08.608Z,99341.47
2022-12-31T01:55:16.239Z,99355.78
2022-12-31T01:56:20.753Z,99360.25
2022-12-31T01:57:24.815Z,99355.78
2022-12-31T01:58:34.823Z,99359.94
2022-12-31T01:59:37.021Z,99357.44
2022-12-31T02:00:38.787Z,99355.03
2022-12-31T02:01:40.673Z,99352.09
2022-12-31T02:02:42.321Z,99349.47
2022-12-31T02:03:44.574Z,99344.47
2022-12-31T02:04:47.035Z,99342.91
2022-12-31T02:05:56.646Z,99345.63
2022-12-31T02:07:04.766Z,99352.53
2022-12-31T02:08:07.191Z,99339.47
2022-12-31T02:09:09.385Z,99336.63
2022-12-31T02:10:11.174Z,99335.59
2022-12-31T02:11:27.944Z,99331.41
2022-12-31T02:12:29.683Z,99322.03
2022-12-31T02:13:31.320Z,99326.47
2022-12-31T02:14:39.628Z,99318.66
2022-12-31T02:16:09.165Z,99316.16
2022-12-31T02:17:19.731Z,99310.81
2022-12-31T02:18:49.322Z,99302.66
2022-12-31T02:20:24.443Z,99310.09
2022-12-31T02:21:41.512Z,99319.50
2022-12-31T02:23:00.923Z,99313.97
2022-12-31T02:24:16.297Z,99305.41
2022-12-31T02:25:29.951Z,99299.63
2022-12-31T02:26:49.588Z,99288.97
2022-12-31T02:28:09.923Z,99286.25
2022-12-31T02:29:47.861Z,99284.50
2022-12-31T02:30:55.991Z,99291.69
2022-12-31T02:32:12.651Z,99310.50
2022-12-31T02:33:28.851Z,99319.28
2022-12-31T02:34:56.484Z,99328.06
2022-12-31T02:36:02.717Z,99331.72
2022-12-31T02:37:08.121Z,99328.91
2022-12-31T02:38:19.345Z,99331.53
2022-12-31T02:39:21.643Z,99340.09
2022-12-31T02:40:23.809Z,99331.31
2022-12-31T02:41:25.320Z,99331.53
2022-12-31T02:42:26.917Z,99335.81
2022-12-31T02:43:28.638Z,99328.06
2022-12-31T02:44:32.677Z,99328.78
2022-12-31T02:45:40.963Z,99330.69
2022-12-31T02:46:51.512Z,99330.59
2022-12-31T02:48:15.305Z,99330.47
2022-12-31T02:49:43.048Z,99331.09
2022-12-31T02:50:52.886Z,99342.19
2022-12-31T02:52:03.818Z,99343.44
2022-12-31T02:53:26.580Z,99349.47
2022-12-31T02:54:31.656Z,99353.78
2022-12-31T02:56:05.466Z,99353.97
2022-12-31T02:57:28.224Z,99349.69
2022-12-31T02:58:47.216Z,99347.19
2022-12-31T03:00:01.596Z,99348.03
2022-12-31T03:01:03.385Z,99340.91
2022-12-31T03:02:14.138Z,99342.50
2022-12-31T03:03:15.983Z,99348.66
2022-12-31T03:04:18.555Z,99356.28
2022-12-31T03:05:24.255Z,99363.00
2022-12-31T03:06:25.961Z,99367.69
2022-12-31T03:07:30.002Z,99366.09
2022-12-31T03:08:31.555Z,99376.16
2022-12-31T03:09:34.034Z,99373.75
2022-12-31T03:10:36.259Z,99376.25
2022-12-31T03:11:37.812Z,99374.28
2022-12-31T03:12:40.265Z,99381.28
2022-12-31T03:13:41.770Z,99381.47
2022-12-31T03:14:43.403Z,99379.19
2022-12-31T03:15:44.992Z,99374.28
2022-12-31T03:16:46.518Z,99373.34
2022-12-31T03:18:15.838Z,99370.19
2022-12-31T03:19:17.389Z,99365.91
2022-12-31T03:20:19.382Z,99370.84
2022-12-31T03:21:20.969Z,99370.09
2022-12-31T03:22:22.593Z,99367.78
2022-12-31T03:23:31.408Z,99372.19
2022-12-31T03:24:32.949Z,99381.91
2022-12-31T03:25:35.187Z,99385.25
2022-12-31T03:26:36.699Z,99380.03
2022-12-31T03:27:41.068Z,99378.44
2022-12-31T03:28:43.871Z,99368.84
2022-12-31T03:29:45.388Z,99364.56
2022-12-31T03:30:50.420Z,99355.78
2022-12-31T03:31:51.984Z,99349.69
2022-12-31T03:32:54.071Z,99342.72
2022-12-31T03:33:55.987Z,99344.47
2022-12-31T03:34:57.604Z,99343.44
2022-12-31T03:35:59.135Z,99341.97
2022-12-31T03:37:01.552Z,99340.41
2022-12-31T03:38:04.482Z,99341.97
2022-12-31T03:39:06.007Z,99342.91
2022-12-31T03:40:09.086Z,99349.69
2022-12-31T03:41:11.276Z,99350.53
2022-12-31T03:42:12.965Z,99353.25
2022-12-31T03:43:14.589Z,99352.53
2022-12-31T03:44:16.106Z,99353.38
2022-12-31T03:45:17.783Z,99351.56
2022-12-31T03:46:19.435Z,99350.00
2022-12-31T03:47:21.053Z,99349.06
2022-12-31T03:48:23.685Z,99346.34
2022-12-31T03:49:25.249Z,99339.25
2022-12-31T03:50:27.308Z,99339.03
2022-12-31T03:51:28.838Z,99347.72
2022-12-31T03:52:30.395Z,99348.66
2022-12-31T03:53:31.933Z,99346.13
2022-12-31T03:54:33.455Z,99348.66
2022-12-31T03:55:35.028Z,99346.88
2022-12-31T03:56:36.553Z,99347.41
2022-12-31T03:57:38.576Z,99343.22
2022-12-31T03:58:40.102Z,99340.59
2022-12-31T03:59:41.630Z,99350.25
2022-12-31T04:00:43.229Z,99341.56
2022-12-31T04:01:44.874Z,99346.69
2022-12-31T04:02:48.363Z,99342.28
2022-12-31T04:03:50.131Z,99353.47
2022-12-31T04:04:51.722Z,99353.59
2022-12-31T04:05:56.881Z,99364.03
2022-12-31T04:06:58.715Z,99358.91
2022-12-31T04:08:00.390Z,99360.47
2022-12-31T04:09:01.925Z,99358.69
2022-12-31T04:10:05.874Z,99357.00
2022-12-31T04:11:07.383Z,99360.38
2022-12-31T04:12:09.070Z,99357.97
2022-12-31T04:13:10.727Z,99357.13
2022-12-31T04:14:12.325Z,99371.03
2022-12-31T04:15:20.203Z,99373.75
2022-12-31T04:16:21.820Z,99375.22
2022-12-31T04:17:23.837Z,99369.25
2022-12-31T04:18:25.360Z,99366.53
2022-12-31T04:19:26.941Z,99367.47
2022-12-31T04:20:28.605Z,99369.25
2022-12-31T04:21:34.861Z,99368.53
2022-12-31T04:22:36.856Z,99356.28
2022-12-31T04:23:38.397Z,99356.28
2022-12-31T04:24:39.969Z,99354.41
2022-12-31T04:25:41.515Z,99361.22
2022-12-31T04:26:45.868Z,99352.56
2022-12-31T04:27:47.414Z,99354.00
2022-12-31T04:28:48.960Z,99360.06
2022-12-31T04:29:50.519Z,99360.69
2022-12-31T04:30:52.074Z,99363.09
2022-12-31T04:31:54.427Z,99364.47
2022-12-31T04:32:56.026Z,99364.28
2022-12-31T04:33:57.653Z,99373.97
2022-12-31T04:34:59.178Z,99379.97
2022-12-31T04:36:10.014Z,99378.16
2022-12-31T04:37:11.568Z,99377.13
2022-12-31T04:38:13.145Z,99382.88
2022-12-31T04:39:14.705Z,99387.16
2022-12-31T04:40:16.263Z,99393.03
2022-12-31T04:41:17.862Z,99398.03
2022-12-31T04:42:19.423Z,99393.25
2022-12-31T04:43:20.984Z,99389.03
2022-12-31T04:44:22.635Z,99392.09
2022-12-31T04:45:24.207Z,99385.06
2022-12-31T04:46:32.184Z,99387.69
2022-12-31T04:47:33.751Z,99388.41
2022-12-31T04:48:35.592Z,99391.78
2022-12-31T04:49:37.109Z,99390.72
2022-12-31T04:50:38.629Z,99387.06
2022-12-31T04:51:40.359Z,99381.31
2022-12-31T04:52:43.081Z,99384.75
2022-12-31T04:53:45.139Z,99394.56
2022-12-31T04:54:46.715Z,99393.53
2022-12-31T04:55:48.335Z,99396.06
2022-12-31T04:56:49.894Z,99408.28
2022-12-31T04:57:51.450Z,99395.66
2022-12-31T04:58:54.198Z,99394.50
2022-12-31T04:59:55.710Z,99393.13
2022-12-31T05:00:58.187Z,99387.50
2022-12-31T05:01:59.946Z,99388.84
2022-12-31T05:03:01.671Z,99377.97
2022-12-31T05:04:03.285Z,99377.56
2022-12-31T05:05:05.127Z,99370.22
2022-12-31T05:06:13.544Z,99378.81
2022-12-31T05:07:15.150Z,99376.91
2022-12-31T05:08:18.156Z,99379.66
2022-12-31T05:09:19.692Z,99374.72
2022-12-31T05:10:21.248Z,99373.38
2022-12-31T05:11:22.929Z,99380.47
2022-12-31T05:12:24.440Z,99372.84
2022-12-31T05:13:32.766Z,99365.72
2022-12-31T05:14:34.774Z,99368.34
2022-12-31T05:15:36.616Z,99365.31
2022-12-31T05:16:38.133Z,99374.94
2022-12-31T05:17:39.736Z,99375.34
2022-12-31T05:18:41.245Z,99373.56
2022-12-31T05:19:42.751Z,99366.59
2022-12-31T05:20:44.426Z,99358.41
2022-12-31T05:21:45.962Z,99365.63
2022-12-31T05:22:47.462Z,99372.72
2022-12-31T05:23:49.164Z,99367.84
2022-12-31T05:24:50.669Z,99366.25
2022-12-31T05:25:52.481Z,99368.00
2022-12-31T05:26:54.033Z,99368.75
2022-12-31T05:27:55.690Z,99372.72
2022-12-31T05:28:57.280Z,99365.28
2022-12-31T05:30:01.060Z,99367.41
2022-12-31T05:31:02.676Z,99361.34
2022-12-31T05:32:04.334Z,99364.97
2022-12-31T05:33:06.202Z,99362.66
2022-12-31T05:34:07.734Z,99365.28
2022-12-31T05:35:09.402Z,99366.78
2022-12-31T05:36:10.966Z,99370.13
2022-12-31T05:37:12.531Z,99378.56
2022-12-31T05:38:14.126Z,99389.13
2022-12-31T05:39:15.757Z,99384.38
2022-12-31T05:40:17.353Z,99390.78
2022-12-31T05:41:18.905Z,99388.66
2022-12-31T05:42:20.862Z,99392.22
2022-12-31T05:43:22.389Z,99395.84
2022-12-31T05:44:23.918Z,99392.09
2022-12-31T05:45:30.725Z,99403.31
2022-12-31T05:46:32.862Z,99404.56
2022-12-31T05:47:34.506Z,99410.34
2022-12-31T05:48:36.059Z,99419.41
2022-12-31T05:49:37.589Z,99419.41
2022-12-31T05:50:39.141Z,99429.97
2022-12-31T05:51:43.175Z,99421.31
2022-12-31T05:52:47.628Z,99418.78
2022-12-31T05:53:49.411Z,99418.22
2022-12-31T05:54:50.976Z,99404.84
2022-12-31T05:55:52.483Z,99398.25
2022-12-31T05:56:54.032Z,99401.41
2022-12-31T05:57:55.563Z,99399.53
2022-12-31T05:58:57.221Z,99403.28
2022-12-31T05:59:58.765Z,99400.59
2022-12-31T06:01:00.369Z,99393.09
2022-12-31T06:02:01.978Z,99399.34
2022-12-31T06:03:03.692Z,99404.75
2022-12-31T06:04:05.387Z,99400.59
2022-12-31T06:05:07.267Z,99401.50
2022-12-31T06:06:08.884Z,99391.69
2022-12-31T06:07:10.485Z,99381.16
2022-12-31T06:08:12.386Z,99379.69
2022-12-31T06:09:15.812Z,99375.09
2022-12-31T06:10:17.441Z,99379.28
2022-12-31T06:11:18.977Z,99377.69
2022-12-31T06:12:20.498Z,99383.03
2022-12-31T06:13:22.046Z,99385.53
2022-12-31T06:14:23.649Z,99380.31
2022-12-31T06:15:25.154Z,99384.72
2022-12-31T06:16:26.750Z,99383.03
2022-12-31T06:17:28.318Z,99380.22
2022-12-31T06:18:29.956Z,99383.69
2022-12-31T06:19:31.510Z,99380.91
2022-12-31T06:20:33.219Z,99389.38
2022-12-31T06:21:34.899Z,99394.19
2022-12-31T06:22:36.444Z,99406.31
2022-12-31T06:23:40.530Z,99408.28
2022-12-31T06:24:42.216Z,99416.22
2022-12-31T06:25:43.764Z,99413.72
2022-12-31T06:26:45.336Z,99422.41
2022-12-31T06:27:46.868Z,99421.84
2022-12-31T06:28:48.430Z,99424.06
2022-12-31T06:29:50.001Z,99431.28
2022-12-31T06:30:51.584Z,99440.50
2022-12-31T06:31:53.134Z,99443.53
2022-12-31T06:32:55.351Z,99447.38
2022-12-31T06:33:56.930Z,99442.72
2022-12-31T06:34:58.508Z,99445.50
2022-12-31T06:36:03.135Z,99450.47
2022-12-31T06:37:04.682Z,99455.69
2022-12-31T06:38:06.215Z,99454.19
2022-12-31T06:39:07.875Z,99450.09
2022-12-31T06:40:10.216Z,99452.50
2022-12-31T06:41:13.828Z,99446.38
2022-12-31T06:42:15.389Z,99458.56
2022-12-31T06:43:17.011Z,99460.25
2022-12-31T06:44:18.518Z,99456.91
2022-12-31T06:45:20.573Z,99461.28
2022-12-31T06:46:22.174Z,99460.25
2022-12-31T06:47:24.087Z,99457.19
2022-12-31T06:48:25.703Z,99451.03
2022-12-31T06:49:27.245Z,99445.81
2022-12-31T06:50:28.765Z,99445.88
2022-12-31T06:51:30.330Z,99445.81
2022-12-31T06:52:31.888Z,99443.28
2022-12-31T06:53:34.235Z,99452.06
2022-12-31T06:54:36.103Z,99460.53
2022-12-31T06:55:38.073Z,99453.34
2022-12-31T06:56:40.273Z,99451.41
2022-12-31T06:57:42.064Z,99443.38
2022-12-31T06:58:44.248Z,99444.97
2022-12-31T06:59:46.196Z,99445.50
2022-12-31T07:01:02.143Z,99427.00
2022-12-31T07:02:15.933Z,99425.16
2022-12-31T07:03:48.452Z,99414.59
2022-12-31T07:05:12.885Z,99416.38
2022-12-31T07:06:26.300Z,99430.16
2022-12-31T07:07:36.912Z,99426.81
2022-12-31T07:09:09.667Z,99426.69
2022-12-31T07:10:29.043Z,99428.28
2022-12-31T07:11:38.967Z,99438.94
2022-12-31T07:12:53.631Z,99443.13
2022-12-31T07:14:00.955Z,99442.94
2022-12-31T07:15:11.004Z,99445.13
2022-12-31T07:16:50.059Z,99446.63
2022-12-31T07:17:51.550Z,99458.63
2022-12-31T07:19:20.879Z,99452.47
2022-12-31T07:20:22.896Z,99450.94
2022-12-31T07:21:51.503Z,99447.19
2022-12-31T07:22:53.337Z,99459.75
2022-12-31T07:23:55.115Z,99453.28
2022-12-31T07:24:56.955Z,99458.84
2022-12-31T07:26:06.730Z,99458.81
2022-12-31T07:27:17.215Z,99453.28
2022-12-31T07:28:36.505Z,99456.00
2022-12-31T07:29:58.794Z,99463.72
2022-12-31T07:31:04.026Z,99453.56
2022-12-31T07:32:29.563Z,99461.84
2022-12-31T07:33:40.533Z,99459.72
2022-12-31T07:34:47.483Z,99458.19
2022-12-31T07:36:16.989Z,99463.50
2022-12-31T07:37:37.242Z,99463.75
2022-12-31T07:38:41.782Z,99468.38
2022-12-31T07:40:14.831Z,99470.34
2022-12-31T07:41:47.437Z,99482.38
2022-12-31T07:42:58.602Z,99479.25
2022-12-31T07:44:35.569Z,99482.28
2022-12-31T07:46:12.031Z,99479.34
2022-12-31T07:47:20.627Z,99487.72
2022-12-31T07:48:27.324Z,99481.66
2022-12-31T07:49:30.030Z,99486.78
2022-12-31T07:50:31.948Z,99487.84
2022-12-31T07:51:33.724Z,99487.00
2022-12-31T07:52:35.536Z,99484.47
2022-12-31T07:53:38.210Z,99476.75
2022-12-31T07:54:39.793Z,99486.16
2022-12-31T07:55:41.452Z,99479.78
2022-12-31T07:56:43.865Z,99464.72
2022-12-31T07:58:01.116Z,99472.03
2022-12-31T07:59:09.906Z,99468.38
2022-12-31T08:00:14.743Z,99470.03
2022-12-31T08:01:28.971Z,99478.59
2022-12-31T08:02:50.770Z,99478.38
2022-12-31T08:04:18.156Z,99473.69
2022-12-31T08:05:38.204Z,99473.69
2022-12-31T08:06:45.629Z,99464.28
2022-12-31T08:08:00.536Z,99465.75
2022-12-31T08:09:42.719Z,99460.28
2022-12-31T08:11:03.370Z,99467.44
2022-12-31T08:12:05.218Z,99462.78
2022-12-31T08:13:11.206Z,99470.22
2022-12-31T08:14:14.683Z,99464.06
2022-12-31T08:15:18.724Z,99462.38
2022-12-31T08:16:20.644Z,99466.44
2022-12-31T08:17:22.752Z,99475.03
2022-12-31T08:18:24.438Z,99463.41
2022-12-31T08:19:31.949Z,99464.03
2022-12-31T08:20:39.425Z,99473.34
2022-12-31T08:21:50.588Z,99462.78
2022-12-31T08:23:24.433Z,99462.56
2022-12-31T08:24:41.368Z,99453.13
2022-12-31T08:25:52.453Z,99454.78
2022-12-31T08:27:26.849Z,99456.38
2022-12-31T08:28:43.464Z,99444.09
2022-12-31T08:30:12.478Z,99447.78
2022-12-31T08:31:21.604Z,99438.88
2022-12-31T08:32:28.440Z,99450.81
2022-12-31T08:33:42.542Z,99448.28
2022-12-31T08:35:06.074Z,99449.00
2022-12-31T08:36:16.509Z,99458.66
2022-12-31T08:37:31.402Z,99455.09
2022-12-31T08:38:46.444Z,99452.34
2022-12-31T08:39:53.891Z,99446.78
2022-12-31T08:40:58.269Z,99446.69
2022-12-31T08:42:04.955Z,99439.06
2022-12-31T08:43:25.682Z,99437.03
2022-12-31T08:44:39.687Z,99445.66
2022-12-31T08:45:47.286Z,99433.38
2022-12-31T08:47:03.777Z,99429.59
2022-12-31T08:48:08.016Z,99431.06
2022-12-31T08:49:10.564Z,99424.00
2022-12-31T08:50:17.161Z,99421.91
2022-12-31T08:51:24.554Z,99425.25
2022-12-31T08:52:26.802Z,99419.69
2022-12-31T08:53:28.629Z,99425.53
2022-12-31T08:54:30.506Z,99428.66
2022-12-31T08:55:32.322Z,99433.06
2022-12-31T08:56:39.769Z,99437.94
2022-12-31T08:58:06.118Z,99424.97
2022-12-31T08:59:25.228Z,99431.41
2022-12-31T09:00:28.030Z,99422.50
2022-12-31T09:01:40.754Z,99428.69
2022-12-31T09:03:08.089Z,99432.75
2022-12-31T09:04:21.694Z,99427.31
2022-12-31T09:05:32.094Z,99430.41
2022-12-31T09:06:48.694Z,99439.63
2022-12-31T09:08:09.664Z,99436.66
2022-12-31T09:09:29.619Z,99438.22
2022-12-31T09:11:08.637Z,99442.91
2022-12-31T09:12:15.904Z,99445.31
2022-12-31T09:13:37.046Z,99449.34
2022-12-31T09:14:48.084Z,99437.19
2022-12-31T09:16:04.807Z,99439.47
2022-12-31T09:17:41.991Z,99442.72
2022-12-31T09:18:43.676Z,99440.69
2022-12-31T09:19:45.341Z,99444.16
2022-12-31T09:20:47.201Z,99446.09
2022-12-31T09:21:49.012Z,99446.72
2022-12-31T09:22:52.074Z,99454.97
2022-12-31T09:23:54.113Z,99450.53
2022-12-31T09:24:55.876Z,99446.84
2022-12-31T09:26:24.911Z,99456.03
2022-12-31T09:27:30.208Z,99439.78
2022-12-31T09:29:07.156Z,99450.06
2022-12-31T09:30:12.409Z,99446.94
2022-12-31T09:31:39.007Z,99450.31
2022-12-31T09:32:58.668Z,99450.66
2022-12-31T09:34:05.408Z,99451.03
2022-12-31T09:35:22.019Z,99448.03
2022-12-31T09:36:40.987Z,99434.53
2022-12-31T09:37:49.243Z,99433.47
2022-12-31T09:39:16.329Z,99425.06
2022-12-31T09:40:17.906Z,99417.47
2022-12-31T09:42:12.299Z,99407.16
2022-12-31T09:43:58.996Z,99396.66
2022-12-31T09:45:16.042Z,99395.69
2022-12-31T09:46:48.623Z,99395.13
2022-12-31T09:48:11.750Z,99390.03
2022-12-31T09:49:31.818Z,99380.63
2022-12-31T09:51:06.311Z,99383.63
2022-12-31T09:52:45.490Z,99376.84
2022-12-31T09:54:03.401Z,99383.22
2022-12-31T09:55:07.988Z,99385.00
2022-12-31T09:56:15.327Z,99396.22
2022-12-31T09:57:28.538Z,99399.22
2022-12-31T09:58:50.969Z,99399.28
2022-12-31T10:00:14.198Z,99399.84
2022-12-31T10:01:39.497Z,99408.56
2022-12-31T10:02:53.166Z,99402.22
2022-12-31T10:04:16.148Z,99410.06
2022-12-31T10:05:45.044Z,99420.41
2022-12-31T10:06:49.313Z,99434.56
2022-12-31T10:07:57.972Z,99434.00
2022-12-31T10:09:24.253Z,99433.03
2022-12-31T10:10:41.675Z,99431.41
2022-12-31T10:11:58.063Z,99445.47
2022-12-31T10:13:05.591Z,99443.84
2022-12-31T10:14:51.546Z,99450.91
2022-12-31T10:16:19.692Z,99440.78
2022-12-31T10:17:48.911Z,99440.41
2022-12-31T10:19:18.268Z,99442.00
2022-12-31T10:20:45.240Z,99432.56
2022-12-31T10:22:10.880Z,99441.69
2022-12-31T10:23:21.373Z,99436.81
2022-12-31T10:24:23.631Z,99433.38
2022-12-31T10:25:38.294Z,99455.13
2022-12-31T10:26:53.593Z,99441.28
2022-12-31T10:28:05.823Z,99447.63
2022-12-31T10:29:10.473Z,99450.53
2022-12-31T10:30:19.405Z,99463.31
2022-12-31T10:31:39.027Z,99464.25
2022-12-31T10:32:43.619Z,99458.66
2022-12-31T10:34:16.984Z,99456.88
2022-12-31T10:35:37.040Z,99463.50
2022-12-31T10:36:42.501Z,99451.03
2022-12-31T10:38:05.279Z,99464.78
2022-12-31T10:39:24.091Z,99457.31
2022-12-31T10:40:28.967Z,99460.53
2022-12-31T10:42:00.861Z,99459.50
2022-12-31T10:43:20.513Z,99463.53
2022-12-31T10:44:27.718Z,99459.63
2022-12-31T10:46:08.008Z,99458.66
2022-12-31T10:47:40.224Z,99463.50
2022-12-31T10:49:12.302Z,99460.47
2022-12-31T10:50:51.270Z,99463.00
2022-12-31T10:52:01.820Z,99450.06
2022-12-31T10:53:45.255Z,99447.59
2022-12-31T10:55:22.411Z,99447.59
2022-12-31T10:56:26.814Z,99444.41
2022-12-31T10:57:39.173Z,99453.16
2022-12-31T10:58:46.590Z,99453.97
2022-12-31T11:00:00.189Z,99451.50
2022-12-31T11:01:19.454Z,99452.59
2022-12-31T11:02:58.382Z,99456.75
2022-12-31T11:04:30.129Z,99462.16
2022-12-31T11:05:56.154Z,99453.56
2022-12-31T11:07:25.543Z,99462.84
2022-12-31T11:08:54.982Z,99465.88
2022-12-31T11:10:30.089Z,99458.13
2022-12-31T11:11:44.257Z,99456.75
2022-12-31T11:13:11.776Z,99468.97
2022-12-31T11:14:43.238Z,99476.28
2022-12-31T11:16:08.343Z,99470.44
2022-12-31T11:17:33.016Z,99470.81
2022-12-31T11:18:43.640Z,99464.75
2022-12-31T11:20:08.013Z,99476.31
2022-12-31T11:21:28.557Z,99471.28
2022-12-31T11:23:01.727Z,99470.13
2022-12-31T11:24:25.190Z,99466.09
2022-12-31T11:25:33.154Z,99463.31
2022-12-31T11:26:57.526Z,99464.28
2022-12-31T11:28:15.694Z,99467.19
2022-12-31T11:29:38.635Z,99473.91
2022-12-31T11:31:04.345Z,99465.91
2022-12-31T11:32:33.228Z,99457.78
2022-12-31T11:33:45.357Z,99458.06
2022-12-31T11:35:08.060Z,99455.31
2022-12-31T11:36:24.675Z,99457.09
2022-12-31T11:37:46.782Z,99464.88
2022-12-31T11:39:06.969Z,99455.88
2022-12-31T11:40:19.673Z,99459.72
2022-12-31T11:41:46.299Z,99461.75
2022-12-31T11:43:16.516Z,99458.53
2022-12-31T11:44:20.991Z,99459.50
2022-12-31T11:45:57.859Z,99455.09
2022-12-31T11:47:16.861Z,99457.13
2022-12-31T11:48:57.409Z,99456.44
2022-12-31T11:50:01.892Z,99457.03
2022-12-31T11:51:37.616Z,99449.50
2022-12-31T11:52:41.750Z,99460.97
2022-12-31T11:54:06.560Z,99465.16
2022-12-31T11:55:30.707Z,99456.06
2022-12-31T11:56:38.566Z,99460.38
2022-12-31T11:57:46.518Z,99455.34
2022-12-31T11:58:56.057Z,99456.19
2022-12-31T12:00:01.485Z,99457.84
2022-12-31T12:01:13.751Z,99454.25
2022-12-31T12:02:24.391Z,99456.75
2022-12-31T12:03:27.339Z,99455.81
2022-12-31T12:04:30.079Z,99450.53
2022-12-31T12:05:32.483Z,99455.34
2022-12-31T12:06:34.023Z,99446.50
2022-12-31T12:07:35.590Z,99446.25
2022-12-31T12:08:38.091Z,99440.28
2022-12-31T12:09:41.112Z,99441.81
2022-12-31T12:10:49.723Z,99443.50
2022-12-31T12:11:59.970Z,99440.97
2022-12-31T12:13:27.247Z,99427.84
2022-12-31T12:14:41.348Z,99429.28
2022-12-31T12:15:47.955Z,99429.88
2022-12-31T12:16:59.154Z,99418.66
2022-12-31T12:18:13.722Z,99417.94
2022-12-31T12:19:18.396Z,99415.16
2022-12-31T12:20:30.510Z,99417.69
2022-12-31T12:21:32.455Z,99408.00
2022-12-31T12:22:35.322Z,99413.97
2022-12-31T12:23:37.691Z,99410.97
2022-12-31T12:24:39.547Z,99413.22
2022-12-31T12:25:43.456Z,99418.22
2022-12-31T12:26:45.284Z,99417.38
2022-12-31T12:27:47.032Z,99418.22
2022-12-31T12:28:48.580Z,99415.59
2022-12-31T12:29:50.176Z,99420.59
2022-12-31T12:31:18.634Z,99408.78
2022-12-31T12:32:23.144Z,99409.84
2022-12-31T12:33:25.585Z,99404.84
2022-12-31T12:34:34.594Z,99405.38
2022-12-31T12:35:36.162Z,99406.47
2022-12-31T12:36:46.175Z,99417.00
2022-12-31T12:37:58.918Z,99425.09
2022-12-31T12:39:03.023Z,99427.97
2022-12-31T12:40:20.845Z,99430.59
2022-12-31T12:41:24.818Z,99420.66
2022-12-31T12:42:26.741Z,99429.41
2022-12-31T12:43:36.573Z,99429.06
2022-12-31T12:44:39.063Z,99420.19
2022-12-31T12:45:52.217Z,99426.16
2022-12-31T12:46:55.606Z,99413.84
2022-12-31T12:48:02.263Z,99413.59
2022-12-31T12:49:03.916Z,99411.34
2022-12-31T12:50:15.687Z,99414.09
2022-12-31T12:51:19.985Z,99410.50
2022-12-31T12:52:32.796Z,99420.63
2022-12-31T12:53:59.819Z,99428.22
2022-12-31T12:55:24.677Z,99424.88
2022-12-31T12:56:51.235Z,99419.00
2022-12-31T12:57:55.745Z,99412.44
2022-12-31T12:59:14.622Z,99423.06
2022-12-31T13:00:18.930Z,99419.63
2022-12-31T13:01:35.081Z,99412.91
2022-12-31T13:03:07.322Z,99420.66
2022-12-31T13:04:34.448Z,99435.75
2022-12-31T13:05:58.278Z,99433.00
2022-12-31T13:07:31.975Z,99420.44
2022-12-31T13:08:49.730Z,99431.81
2022-12-31T13:10:08.750Z,99428.31
2022-12-31T13:11:37.720Z,99432.66
2022-12-31T13:13:25.901Z,99419.69
2022-12-31T13:15:09.820Z,99428.94
2022-12-31T13:16:22.762Z,99429.78
2022-12-31T13:17:54.098Z,99422.97
2022-12-31T13:19:34.944Z,99415.56
2022-12-31T13:20:39.318Z,99422.59
2022-12-31T13:21:49.760Z,99424.25
2022-12-31T13:23:33.671Z,99420.66
2022-12-31T13:24:56.031Z,99422.72
2022-12-31T13:26:05.848Z,99427.75
2022-12-31T13:27:35.382Z,99425.09
2022-12-31T13:28:39.898Z,99425.09
2022-12-31T13:29:44.891Z,99425.84
2022-12-31T13:30:50.667Z,99424.03
2022-12-31T13:31:55.286Z,99423.06
2022-12-31T13:33:21.516Z,99418.66
2022-12-31T13:34:31.831Z,99415.91
2022-12-31T13:35:43.501Z,99407.75
2022-12-31T13:36:47.493Z,99407.75
2022-12-31T13:37:53.529Z,99412.31
2022-12-31T13:38:58.840Z,99414.34